createdAt,value
2022-09-23T00:00:17.434Z,0.00
2022-09-23T00:01:17.519Z,0.00
2022-09-23T00:02:17.452Z,0.00
2022-09-23T00:03:17.398Z,0.00
2022-09-23T00:04:17.387Z,0.00
2022-09-23T00:05:17.446Z,0.00
2022-09-23T00:06:17.364Z,0.00
2022-09-23T00:07:17.354Z,0.00
2022-09-23T00:08:17.344Z,0.00
2022-09-23T00:09:17.337Z,0.00
2022-09-23T00:10:17.323Z,0.00
2022-09-23T00:11:17.382Z,0.00
2022-09-23T00:12:17.302Z,0.00
2022-09-23T00:13:17.291Z,0.00
2022-09-23T00:14:17.281Z,0.00
2022-09-23T00:15:17.272Z,0.00
2022-09-23T00:16:17.388Z,0.00
2022-09-23T00:17:17.316Z,0.00
2022-09-23T00:18:17.249Z,0.00
2022-09-23T00:19:17.225Z,0.00
2022-09-23T00:20:17.219Z,0.00
2022-09-23T00:21:17.209Z,0.00
2022-09-23T00:22:17.192Z,0.00
2022-09-23T00:23:17.245Z,0.00
2022-09-23T00:24:17.176Z,0.00
2022-09-23T00:25:17.162Z,0.00
2022-09-23T00:26:17.153Z,0.00
2022-09-23T00:27:17.380Z,0.00
2022-09-23T00:28:17.128Z,0.00
2022-09-23T00:29:17.144Z,0.00
2022-09-23T00:30:17.104Z,0.00
2022-09-23T00:31:17.158Z,0.00
2022-09-23T00:32:17.081Z,0.00
2022-09-23T00:33:17.071Z,0.00
2022-09-23T00:34:17.141Z,0.00
2022-09-23T00:35:17.053Z,0.00
2022-09-23T00:36:17.045Z,0.00
2022-09-23T00:37:17.034Z,0.00
2022-09-23T00:38:17.113Z,0.00
2022-09-23T00:39:17.023Z,0.00
2022-09-23T00:40:17.063Z,0.00
2022-09-23T00:41:17.249Z,0.00
2022-09-23T00:42:16.974Z,0.00
2022-09-23T00:43:17.123Z,0.00
2022-09-23T00:44:16.953Z,0.00
2022-09-23T00:45:16.944Z,0.00
2022-09-23T00:46:16.983Z,0.00
2022-09-23T00:47:16.917Z,0.00
2022-09-23T00:48:16.909Z,0.00
2022-09-23T00:49:16.913Z,0.00
2022-09-23T00:50:16.887Z,0.00
2022-09-23T00:51:16.878Z,0.00
2022-09-23T00:52:16.938Z,0.00
2022-09-23T00:53:16.856Z,0.00
2022-09-23T00:54:16.849Z,0.00
2022-09-23T00:55:16.855Z,0.00
2022-09-23T00:56:16.834Z,0.00
2022-09-23T00:57:16.816Z,0.00
2022-09-23T00:58:16.866Z,0.00
2022-09-23T00:59:16.820Z,0.00
2022-09-23T01:00:16.789Z,0.00
2022-09-23T01:01:16.899Z,0.00
2022-09-23T01:02:16.777Z,0.00
2022-09-23T01:03:16.750Z,0.00
2022-09-23T01:04:16.952Z,0.00
2022-09-23T01:05:16.722Z,0.00
2022-09-23T01:06:16.727Z,0.00
2022-09-23T01:07:16.716Z,0.00
2022-09-23T01:08:16.691Z,0.00
2022-09-23T01:09:16.679Z,0.00
2022-09-23T01:10:16.702Z,0.00
2022-09-23T01:11:16.660Z,0.00
2022-09-23T01:12:16.661Z,0.00
2022-09-23T01:13:16.641Z,0.00
2022-09-23T01:14:16.689Z,0.00
2022-09-23T01:15:16.640Z,0.00
2022-09-23T01:16:16.728Z,0.00
2022-09-23T01:17:16.602Z,0.00
2022-09-23T01:18:16.591Z,0.00
2022-09-23T01:19:16.583Z,0.00
2022-09-23T01:20:16.566Z,0.00
2022-09-23T01:21:16.551Z,0.00
2022-09-23T01:22:16.631Z,0.00
2022-09-23T01:23:16.534Z,0.00
2022-09-23T01:24:16.535Z,0.00
2022-09-23T01:25:16.510Z,0.00
2022-09-23T01:26:16.494Z,0.00
2022-09-23T01:27:16.483Z,0.00
2022-09-23T01:28:16.535Z,0.00
2022-09-23T01:29:16.499Z,0.00
2022-09-23T01:30:16.456Z,0.00
2022-09-23T01:31:16.508Z,0.00
2022-09-23T01:32:16.433Z,0.00
2022-09-23T01:33:16.417Z,0.00
2022-09-23T01:34:16.493Z,0.00
2022-09-23T01:35:16.403Z,0.00
2022-09-23T01:36:16.386Z,0.00
2022-09-23T01:37:16.387Z,0.00
2022-09-23T01:38:16.367Z,0.00
2022-09-23T01:39:16.575Z,0.00
2022-09-23T01:40:16.450Z,0.00
2022-09-23T01:41:16.334Z,0.00
2022-09-23T01:42:16.322Z,0.00
2022-09-23T01:43:16.413Z,0.00
2022-09-23T01:44:16.302Z,0.00
2022-09-23T01:45:16.305Z,0.00
2022-09-23T01:46:16.330Z,0.00
2022-09-23T01:47:16.293Z,0.00
2022-09-23T01:48:16.341Z,0.00
2022-09-23T01:49:16.258Z,0.00
2022-09-23T01:50:16.235Z,0.00
2022-09-23T01:51:16.311Z,0.00
2022-09-23T01:52:16.212Z,0.00
2022-09-23T01:53:16.204Z,0.00
2022-09-23T01:54:16.192Z,0.00
2022-09-23T01:55:16.212Z,0.00
2022-09-23T01:56:16.172Z,0.00
2022-09-23T01:57:16.164Z,0.00
2022-09-23T01:58:16.150Z,0.00
2022-09-23T01:59:16.158Z,0.00
2022-09-23T02:00:16.137Z,0.00
2022-09-23T02:01:16.180Z,0.00
2022-09-23T02:02:16.183Z,0.00
2022-09-23T02:03:16.123Z,0.00
2022-09-23T02:04:16.246Z,0.00
2022-09-23T02:05:16.073Z,0.00
2022-09-23T02:06:16.227Z,0.00
2022-09-23T02:07:16.050Z,0.00
2022-09-23T02:08:16.044Z,0.00
2022-09-23T02:09:16.073Z,0.00
2022-09-23T02:10:16.030Z,0.00
2022-09-23T02:11:16.015Z,0.00
2022-09-23T02:12:16.057Z,0.00
2022-09-23T02:13:15.987Z,0.00
2022-09-23T02:14:15.977Z,0.00
2022-09-23T02:15:15.966Z,0.00
2022-09-23T02:16:16.006Z,0.00
2022-09-23T02:17:15.944Z,0.00
2022-09-23T02:18:16.001Z,0.00
2022-09-23T02:19:16.054Z,0.00
2022-09-23T02:20:15.908Z,0.00
2022-09-23T02:21:15.897Z,0.00
2022-09-23T02:22:15.890Z,0.00
2022-09-23T02:23:15.875Z,0.00
2022-09-23T02:24:15.962Z,0.00
2022-09-23T02:25:15.868Z,0.00
2022-09-23T02:26:15.842Z,0.00
2022-09-23T02:27:15.842Z,0.00
2022-09-23T02:28:15.824Z,0.00
2022-09-23T02:29:15.808Z,0.00
2022-09-23T02:30:15.857Z,0.00
2022-09-23T02:31:15.791Z,0.00
2022-09-23T02:32:15.794Z,0.00
2022-09-23T02:33:15.769Z,0.00
2022-09-23T02:34:15.758Z,0.00
2022-09-23T02:35:15.775Z,0.00
2022-09-23T02:36:15.738Z,0.00
2022-09-23T02:37:15.739Z,0.00
2022-09-23T02:38:15.724Z,0.00
2022-09-23T02:39:15.704Z,0.00
2022-09-23T02:40:15.730Z,0.00
2022-09-23T02:41:15.685Z,0.00
2022-09-23T02:42:15.671Z,0.00
2022-09-23T02:43:15.767Z,0.00
2022-09-23T02:44:15.649Z,0.00
2022-09-23T02:45:15.649Z,0.00
2022-09-23T02:46:15.670Z,0.00
2022-09-23T02:47:15.615Z,0.00
2022-09-23T02:48:15.614Z,0.00
2022-09-23T02:49:15.674Z,0.00
2022-09-23T02:50:15.584Z,0.00
2022-09-23T02:51:15.628Z,0.00
2022-09-23T02:52:15.559Z,0.00
2022-09-23T02:53:15.550Z,0.00
2022-09-23T02:54:15.542Z,0.00
2022-09-23T02:55:15.588Z,0.00
2022-09-23T02:56:15.541Z,0.00
2022-09-23T02:57:15.510Z,0.00
2022-09-23T02:58:15.502Z,0.00
2022-09-23T02:59:15.491Z,0.00
2022-09-23T03:00:15.474Z,0.00
2022-09-23T03:01:15.605Z,0.00
2022-09-23T03:02:15.505Z,0.00
2022-09-23T03:03:15.444Z,0.00
2022-09-23T03:04:15.426Z,0.00
2022-09-23T03:05:15.511Z,0.00
2022-09-23T03:06:15.414Z,0.00
2022-09-23T03:07:15.461Z,0.00
2022-09-23T03:08:15.387Z,0.00
2022-09-23T03:09:15.376Z,0.00
2022-09-23T03:10:15.363Z,0.00
2022-09-23T03:11:15.364Z,0.00
2022-09-23T03:12:15.342Z,0.00
2022-09-23T03:13:15.433Z,0.00
2022-09-23T03:14:15.331Z,0.00
2022-09-23T03:15:15.307Z,0.00
2022-09-23T03:16:15.376Z,0.00
2022-09-23T03:17:15.288Z,0.00
2022-09-23T03:18:15.306Z,0.00
2022-09-23T03:19:15.290Z,0.00
2022-09-23T03:20:15.259Z,0.00
2022-09-23T03:21:15.243Z,0.00
2022-09-23T03:22:15.239Z,0.00
2022-09-23T03:23:15.261Z,0.00
2022-09-23T03:24:15.212Z,0.00
2022-09-23T03:25:15.253Z,0.00
2022-09-23T03:26:15.194Z,0.00
2022-09-23T03:27:15.179Z,0.00
2022-09-23T03:28:15.171Z,0.00
2022-09-23T03:29:15.161Z,0.00
2022-09-23T03:30:15.150Z,0.00
2022-09-23T03:31:15.295Z,0.00
2022-09-23T03:32:15.128Z,0.00
2022-09-23T03:33:15.116Z,0.00
2022-09-23T03:34:15.121Z,0.00
2022-09-23T03:35:15.153Z,0.00
2022-09-23T03:36:15.078Z,0.00
2022-09-23T03:37:15.068Z,0.00
2022-09-23T03:38:15.126Z,0.00
2022-09-23T03:39:15.071Z,0.00
2022-09-23T03:40:15.137Z,0.00
2022-09-23T03:41:15.025Z,0.00
2022-09-23T03:42:15.018Z,0.00
2022-09-23T03:43:15.019Z,0.00
2022-09-23T03:44:15.064Z,0.00
2022-09-23T03:45:14.987Z,0.00
2022-09-23T03:46:15.017Z,0.00
2022-09-23T03:47:14.961Z,0.00
2022-09-23T03:48:14.956Z,0.00
2022-09-23T03:49:14.948Z,0.00
2022-09-23T03:50:15.024Z,0.00
2022-09-23T03:51:14.927Z,0.00
2022-09-23T03:52:14.903Z,0.00
2022-09-23T03:53:14.894Z,0.00
2022-09-23T03:54:14.898Z,0.00
2022-09-23T03:55:14.905Z,0.00
2022-09-23T03:56:14.931Z,0.00
2022-09-23T03:57:14.881Z,0.00
2022-09-23T03:58:14.839Z,0.00
2022-09-23T03:59:14.830Z,0.00
2022-09-23T04:00:14.830Z,0.00
2022-09-23T04:01:14.951Z,0.00
2022-09-23T04:02:14.944Z,0.00
2022-09-23T04:03:14.789Z,0.00
2022-09-23T04:04:14.778Z,0.00
2022-09-23T04:05:14.767Z,0.00
2022-09-23T04:06:14.764Z,0.00
2022-09-23T04:07:14.744Z,0.00
2022-09-23T04:08:14.789Z,0.00
2022-09-23T04:09:14.719Z,0.00
2022-09-23T04:10:14.714Z,0.00
2022-09-23T04:11:14.735Z,0.00
2022-09-23T04:12:14.696Z,0.00
2022-09-23T04:13:14.679Z,0.00
2022-09-23T04:14:14.681Z,0.00
2022-09-23T04:15:14.670Z,0.00
2022-09-23T04:16:14.743Z,0.00
2022-09-23T04:17:14.634Z,0.00
2022-09-23T04:18:14.620Z,0.00
2022-09-23T04:19:14.750Z,0.00
2022-09-23T04:20:14.600Z,0.00
2022-09-23T04:21:14.773Z,0.00
2022-09-23T04:22:14.599Z,0.00
2022-09-23T04:23:14.571Z,0.00
2022-09-23T04:24:14.599Z,0.00
2022-09-23T04:25:14.551Z,0.00
2022-09-23T04:26:14.552Z,0.00
2022-09-23T04:27:14.842Z,0.00
2022-09-23T04:28:14.578Z,0.00
2022-09-23T04:29:14.561Z,0.00
2022-09-23T04:30:14.496Z,0.00
2022-09-23T04:31:14.552Z,0.00
2022-09-23T04:32:14.471Z,0.00
2022-09-23T04:33:14.469Z,0.00
2022-09-23T04:34:14.450Z,0.00
2022-09-23T04:35:14.526Z,0.00
2022-09-23T04:36:14.425Z,0.00
2022-09-23T04:37:14.421Z,0.00
2022-09-23T04:38:14.404Z,0.00
2022-09-23T04:39:14.403Z,0.00
2022-09-23T04:40:14.530Z,0.00
2022-09-23T04:41:14.432Z,0.00
2022-09-23T04:42:14.364Z,0.00
2022-09-23T04:43:14.434Z,0.00
2022-09-23T04:44:14.341Z,0.00
2022-09-23T04:45:14.339Z,0.00
2022-09-23T04:46:14.397Z,0.00
2022-09-23T04:47:14.387Z,0.00
2022-09-23T04:48:14.298Z,0.00
2022-09-23T04:49:14.286Z,0.00
2022-09-23T04:50:14.288Z,0.00
2022-09-23T04:51:14.269Z,0.00
2022-09-23T04:52:14.255Z,0.00
2022-09-23T04:53:14.305Z,0.00
2022-09-23T04:54:14.230Z,0.00
2022-09-23T04:55:14.221Z,0.00
2022-09-23T04:56:14.225Z,0.00
2022-09-23T04:57:14.196Z,0.00
2022-09-23T04:58:14.185Z,5.62
2022-09-23T04:59:14.214Z,5.62
2022-09-23T05:00:14.163Z,5.62
2022-09-23T05:01:14.330Z,5.62
2022-09-23T05:02:14.175Z,5.62
2022-09-23T05:03:14.126Z,5.62
2022-09-23T05:04:14.332Z,5.62
2022-09-23T05:05:14.199Z,11.25
2022-09-23T05:06:14.097Z,11.25
2022-09-23T05:07:14.103Z,11.25
2022-09-23T05:08:14.080Z,11.25
2022-09-23T05:09:14.065Z,11.25
2022-09-23T05:10:14.055Z,16.88
2022-09-23T05:11:14.131Z,16.88
2022-09-23T05:12:14.033Z,16.88
2022-09-23T05:13:14.030Z,16.88
2022-09-23T05:14:14.021Z,16.88
2022-09-23T05:15:14.113Z,22.50
2022-09-23T05:16:14.089Z,22.50
2022-09-23T05:17:14.080Z,22.50
2022-09-23T05:18:16.878Z,22.50
2022-09-23T05:19:14.969Z,28.12
2022-09-23T05:20:13.946Z,28.12
2022-09-23T05:21:13.934Z,28.12
2022-09-23T05:22:13.956Z,28.12
2022-09-23T05:23:13.987Z,33.75
2022-09-23T05:24:13.914Z,33.75
2022-09-23T05:25:13.894Z,33.75
2022-09-23T05:26:13.883Z,39.38
2022-09-23T05:27:13.867Z,39.38
2022-09-23T05:28:13.856Z,39.38
2022-09-23T05:29:13.948Z,39.38
2022-09-23T05:30:13.850Z,45.00
2022-09-23T05:31:19.387Z,45.00
2022-09-23T05:32:14.817Z,45.00
2022-09-23T05:33:13.806Z,45.00
2022-09-23T05:34:13.793Z,50.62
2022-09-23T05:35:13.925Z,50.62
2022-09-23T05:36:13.770Z,50.62
2022-09-23T05:37:13.759Z,50.62
2022-09-23T05:38:13.749Z,56.25
2022-09-23T05:39:13.738Z,56.25
2022-09-23T05:40:13.801Z,56.25
2022-09-23T05:41:13.811Z,56.25
2022-09-23T05:42:13.703Z,61.88
2022-09-23T05:43:13.693Z,61.88
2022-09-23T05:44:13.680Z,61.88
2022-09-23T05:45:13.672Z,67.50
2022-09-23T05:46:13.712Z,67.50
2022-09-23T05:47:13.711Z,67.50
2022-09-23T05:48:13.638Z,67.50
2022-09-23T05:49:13.625Z,73.12
2022-09-23T05:50:13.618Z,73.12
2022-09-23T05:51:13.605Z,73.12
2022-09-23T05:52:13.595Z,78.75
2022-09-23T05:53:13.654Z,78.75
2022-09-23T05:54:13.579Z,78.75
2022-09-23T05:55:13.563Z,84.38
2022-09-23T05:56:13.556Z,84.38
2022-09-23T05:57:13.540Z,84.38
2022-09-23T05:58:13.530Z,84.38
2022-09-23T05:59:13.605Z,90.00
2022-09-23T06:00:13.516Z,90.00
2022-09-23T06:01:13.521Z,90.00
2022-09-23T06:02:13.529Z,90.00
2022-09-23T06:03:13.702Z,95.62
2022-09-23T06:04:13.482Z,95.62
2022-09-23T06:05:13.540Z,95.62
2022-09-23T06:06:13.442Z,95.62
2022-09-23T06:07:13.455Z,95.62
2022-09-23T06:08:13.421Z,95.62
2022-09-23T06:09:13.429Z,101.25
2022-09-23T06:10:13.415Z,101.25
2022-09-23T06:11:13.483Z,101.25
2022-09-23T06:12:13.376Z,101.25
2022-09-23T06:13:13.366Z,101.25
2022-09-23T06:14:13.356Z,101.25
2022-09-23T06:15:13.357Z,106.88
2022-09-23T06:16:13.380Z,106.88
2022-09-23T06:17:13.390Z,106.88
2022-09-23T06:18:13.313Z,106.88
2022-09-23T06:19:13.336Z,106.88
2022-09-23T06:20:13.295Z,112.50
2022-09-23T06:21:13.293Z,112.50
2022-09-23T06:22:13.272Z,112.50
2022-09-23T06:23:13.314Z,118.12
2022-09-23T06:24:17.154Z,123.75
2022-09-23T06:25:14.232Z,129.38
2022-09-23T06:26:13.225Z,230.62
2022-09-23T06:27:13.210Z,438.75
2022-09-23T06:28:13.205Z,663.75
2022-09-23T06:29:13.269Z,770.62
2022-09-23T06:30:13.193Z,765.00
2022-09-23T06:31:13.868Z,776.25
2022-09-23T06:32:13.172Z,798.75
2022-09-23T06:33:13.145Z,810.00
2022-09-23T06:34:14.127Z,798.75
2022-09-23T06:35:25.732Z,663.75
2022-09-23T06:36:22.289Z,742.50
2022-09-23T06:37:19.892Z,826.88
2022-09-23T06:38:14.096Z,866.25
2022-09-23T06:39:13.086Z,832.50
2022-09-23T06:40:13.089Z,826.88
2022-09-23T06:41:13.134Z,821.25
2022-09-23T06:42:13.048Z,911.25
2022-09-23T06:43:13.049Z,978.75
2022-09-23T06:44:13.028Z,978.75
2022-09-23T06:45:13.016Z,967.50
2022-09-23T06:46:13.047Z,973.12
2022-09-23T06:47:13.031Z,956.25
2022-09-23T06:48:12.986Z,956.25
2022-09-23T06:49:13.124Z,978.75
2022-09-23T06:50:12.965Z,950.62
2022-09-23T06:51:12.979Z,939.38
2022-09-23T06:52:12.997Z,950.62
2022-09-23T06:53:12.927Z,973.12
2022-09-23T06:54:12.913Z,1035.00
2022-09-23T06:55:13.040Z,1040.62
2022-09-23T06:56:12.892Z,1029.38
2022-09-23T06:57:12.882Z,967.50
2022-09-23T06:58:12.884Z,1018.12
2022-09-23T06:59:12.862Z,1051.88
2022-09-23T07:00:12.887Z,883.12
2022-09-23T07:01:12.917Z,1046.25
2022-09-23T07:02:13.053Z,1181.25
2022-09-23T07:03:12.822Z,1136.25
2022-09-23T07:04:12.809Z,1051.88
2022-09-23T07:05:12.797Z,1040.62
2022-09-23T07:06:12.856Z,1063.12
2022-09-23T07:07:12.897Z,1068.75
2022-09-23T07:08:12.758Z,1175.62
2022-09-23T07:09:12.750Z,1271.25
2022-09-23T07:10:12.736Z,1164.38
2022-09-23T07:11:12.726Z,1096.88
2022-09-23T07:12:12.744Z,1215.00
2022-09-23T07:13:16.139Z,1254.38
2022-09-23T07:14:12.692Z,1209.38
2022-09-23T07:15:12.687Z,1141.88
2022-09-23T07:16:12.755Z,1220.62
2022-09-23T07:17:12.663Z,1282.50
2022-09-23T07:18:12.668Z,1215.00
2022-09-23T07:19:12.641Z,1237.50
2022-09-23T07:20:12.634Z,1198.12
2022-09-23T07:21:12.618Z,1248.75
2022-09-23T07:22:12.608Z,1378.12
2022-09-23T07:23:12.620Z,1366.88
2022-09-23T07:24:12.653Z,1276.88
2022-09-23T07:25:12.578Z,1203.75
2022-09-23T07:26:12.563Z,1276.88
2022-09-23T07:27:12.560Z,1327.50
2022-09-23T07:28:12.542Z,1406.25
2022-09-23T07:29:12.756Z,1535.62
2022-09-23T07:30:21.720Z,1456.88
2022-09-23T07:31:13.987Z,1395.00
2022-09-23T07:32:13.960Z,1411.88
2022-09-23T07:33:25.619Z,1400.62
2022-09-23T07:34:13.496Z,1518.75
2022-09-23T07:35:12.467Z,1586.25
2022-09-23T07:36:12.504Z,1485.00
2022-09-23T07:37:12.443Z,1496.25
2022-09-23T07:38:12.443Z,1518.75
2022-09-23T07:39:12.446Z,1518.75
2022-09-23T07:40:12.519Z,1462.50
2022-09-23T07:41:12.399Z,1473.75
2022-09-23T07:42:12.495Z,1496.25
2022-09-23T07:43:12.378Z,1445.62
2022-09-23T07:44:12.391Z,1608.75
2022-09-23T07:45:12.357Z,1648.12
2022-09-23T07:46:12.440Z,1479.38
2022-09-23T07:47:12.337Z,1451.25
2022-09-23T07:48:12.387Z,1473.75
2022-09-23T07:49:12.317Z,1440.00
2022-09-23T07:50:12.302Z,1490.62
2022-09-23T07:51:12.308Z,1580.62
2022-09-23T07:52:12.542Z,1648.12
2022-09-23T07:53:12.272Z,1726.88
2022-09-23T07:54:12.262Z,1597.50
2022-09-23T07:55:12.301Z,1670.62
2022-09-23T07:56:12.249Z,1715.62
2022-09-23T07:57:12.228Z,1614.38
2022-09-23T07:58:12.241Z,1833.75
2022-09-23T07:59:12.206Z,1822.50
2022-09-23T08:00:12.198Z,1912.50
2022-09-23T08:01:12.324Z,1912.50
2022-09-23T08:02:12.180Z,1738.12
2022-09-23T08:03:12.234Z,1816.88
2022-09-23T08:04:12.151Z,1698.75
2022-09-23T08:05:12.138Z,1563.75
2022-09-23T08:06:12.133Z,1490.62
2022-09-23T08:07:12.137Z,1316.25
2022-09-23T08:08:12.109Z,1203.75
2022-09-23T08:09:12.097Z,1265.62
2022-09-23T08:10:12.090Z,1462.50
2022-09-23T08:11:12.098Z,1490.62
2022-09-23T08:12:15.885Z,1546.88
2022-09-23T08:13:12.156Z,1760.62
2022-09-23T08:14:12.042Z,1755.00
2022-09-23T08:15:12.036Z,1873.12
2022-09-23T08:16:12.130Z,1625.62
2022-09-23T08:17:12.010Z,1766.25
2022-09-23T08:18:12.013Z,1766.25
2022-09-23T08:19:12.066Z,1653.75
2022-09-23T08:20:12.050Z,1755.00
2022-09-23T08:21:11.962Z,1788.75
2022-09-23T08:22:11.954Z,1749.38
2022-09-23T08:23:11.997Z,1794.38
2022-09-23T08:24:11.943Z,1833.75
2022-09-23T08:25:11.918Z,1749.38
2022-09-23T08:26:19.995Z,1726.88
2022-09-23T08:27:12.919Z,1805.62
2022-09-23T08:28:11.885Z,1845.00
2022-09-23T08:29:11.867Z,2041.88
2022-09-23T08:30:11.874Z,1963.12
2022-09-23T08:31:11.930Z,1867.50
2022-09-23T08:32:11.839Z,1771.88
2022-09-23T08:33:11.838Z,1687.50
2022-09-23T08:34:11.816Z,1788.75
2022-09-23T08:35:11.812Z,1996.88
2022-09-23T08:36:11.817Z,2041.88
2022-09-23T08:37:11.839Z,1985.62
2022-09-23T08:38:11.781Z,2053.12
2022-09-23T08:39:11.781Z,2098.12
2022-09-23T08:40:11.805Z,2053.12
2022-09-23T08:41:11.737Z,1935.00
2022-09-23T08:42:11.727Z,1856.25
2022-09-23T08:43:11.768Z,1811.25
2022-09-23T08:44:11.718Z,1788.75
2022-09-23T08:45:11.693Z,1794.38
2022-09-23T08:46:11.758Z,1946.25
2022-09-23T08:47:11.670Z,2075.62
2022-09-23T08:48:13.145Z,2064.38
2022-09-23T08:49:11.713Z,2086.88
2022-09-23T08:50:11.647Z,2182.50
2022-09-23T08:51:11.628Z,2103.75
2022-09-23T08:52:11.618Z,1918.12
2022-09-23T08:53:11.611Z,2019.38
2022-09-23T08:54:11.595Z,2058.75
2022-09-23T08:55:11.616Z,1957.50
2022-09-23T08:56:11.573Z,1861.88
2022-09-23T08:57:11.569Z,2002.50
2022-09-23T08:58:25.045Z,1968.75
2022-09-23T08:59:12.574Z,1867.50
2022-09-23T09:00:11.534Z,1951.88
2022-09-23T09:01:11.605Z,1968.75
2022-09-23T09:02:11.532Z,2013.75
2022-09-23T09:03:11.520Z,2058.75
2022-09-23T09:04:12.710Z,1968.75
2022-09-23T09:05:11.476Z,2103.75
2022-09-23T09:06:11.461Z,2103.75
2022-09-23T09:07:35.824Z,2199.38
2022-09-23T09:08:12.452Z,2244.38
2022-09-23T09:09:11.429Z,2131.88
2022-09-23T09:10:11.421Z,2176.88
2022-09-23T09:11:11.409Z,2137.50
2022-09-23T09:12:11.401Z,2205.00
2022-09-23T09:13:11.401Z,2148.75
2022-09-23T09:14:11.424Z,1957.50
2022-09-23T09:15:11.390Z,2053.12
2022-09-23T09:16:11.480Z,2278.12
2022-09-23T09:17:11.359Z,2328.75
2022-09-23T09:18:11.334Z,2171.25
2022-09-23T09:19:11.320Z,2030.62
2022-09-23T09:20:11.337Z,2053.12
2022-09-23T09:21:11.351Z,2064.38
2022-09-23T09:22:11.292Z,2233.12
2022-09-23T09:23:11.286Z,2334.38
2022-09-23T09:24:11.265Z,2266.88
2022-09-23T09:25:14.133Z,2131.88
2022-09-23T09:26:11.242Z,2165.62
2022-09-23T09:27:11.299Z,2154.38
2022-09-23T09:28:11.222Z,2148.75
2022-09-23T09:29:33.776Z,1918.12
2022-09-23T09:30:12.228Z,1749.38
2022-09-23T09:31:11.248Z,1777.50
2022-09-23T09:32:11.177Z,1878.75
2022-09-23T09:33:11.221Z,1901.25
2022-09-23T09:34:11.163Z,1929.38
2022-09-23T09:35:11.145Z,2115.00
2022-09-23T09:36:11.149Z,2295.00
2022-09-23T09:37:11.123Z,2165.62
2022-09-23T09:38:11.186Z,2058.75
2022-09-23T09:39:11.107Z,2036.25
2022-09-23T09:40:11.143Z,2182.50
2022-09-23T09:41:11.078Z,2098.12
2022-09-23T09:42:11.079Z,1996.88
2022-09-23T09:43:11.059Z,2143.12
2022-09-23T09:44:11.054Z,2328.75
2022-09-23T09:45:11.081Z,2266.88
2022-09-23T09:46:11.058Z,2199.38
2022-09-23T09:47:11.054Z,2165.62
2022-09-23T09:48:11.006Z,1996.88
2022-09-23T09:49:10.996Z,1951.88
2022-09-23T09:50:10.982Z,2081.25
2022-09-23T09:51:11.015Z,2075.62
2022-09-23T09:52:10.963Z,1873.12
2022-09-23T09:53:10.914Z,2036.25
2022-09-23T09:54:10.898Z,2171.25
2022-09-23T09:55:10.875Z,2148.75
2022-09-23T09:56:10.900Z,1991.25
2022-09-23T09:57:10.846Z,1906.88
2022-09-23T09:58:10.850Z,2030.62
2022-09-23T09:59:10.862Z,2171.25
2022-09-23T10:00:10.814Z,1940.62
2022-09-23T10:01:10.841Z,1856.25
2022-09-23T10:02:10.790Z,1957.50
2022-09-23T10:03:10.832Z,2075.62
2022-09-23T10:04:10.937Z,2075.62
2022-09-23T10:05:10.759Z,1985.62
2022-09-23T10:06:10.856Z,1912.50
2022-09-23T10:07:10.735Z,1822.50
2022-09-23T10:08:10.723Z,1923.75
2022-09-23T10:09:10.843Z,2019.38
2022-09-23T10:10:22.486Z,2053.12
2022-09-23T10:11:11.690Z,2008.12
2022-09-23T10:12:10.735Z,1935.00
2022-09-23T10:13:10.665Z,1963.12
2022-09-23T10:14:10.665Z,1906.88
2022-09-23T10:15:10.642Z,1811.25
2022-09-23T10:16:10.632Z,1749.38
2022-09-23T10:17:10.628Z,1833.75
2022-09-23T10:18:10.615Z,1873.12
2022-09-23T10:19:10.648Z,1738.12
2022-09-23T10:20:10.589Z,1749.38
2022-09-23T10:21:10.574Z,1732.50
2022-09-23T10:22:10.562Z,1636.88
2022-09-23T10:23:10.560Z,1665.00
2022-09-23T10:24:10.571Z,1608.75
2022-09-23T10:25:10.573Z,1591.88
2022-09-23T10:26:10.531Z,1676.25
2022-09-23T10:27:10.507Z,1771.88
2022-09-23T10:28:10.495Z,1788.75
2022-09-23T10:29:10.552Z,1850.62
2022-09-23T10:30:10.544Z,1766.25
2022-09-23T10:31:10.545Z,1811.25
2022-09-23T10:32:10.460Z,1794.38
2022-09-23T10:33:10.440Z,1856.25
2022-09-23T10:34:10.445Z,1845.00
2022-09-23T10:35:10.479Z,1760.62
2022-09-23T10:36:10.469Z,1687.50
2022-09-23T10:37:10.405Z,1575.00
2022-09-23T10:38:10.404Z,1603.12
2022-09-23T10:39:10.448Z,1530.00
2022-09-23T10:40:10.418Z,1490.62
2022-09-23T10:41:10.565Z,1462.50
2022-09-23T10:42:10.426Z,1473.75
2022-09-23T10:43:10.352Z,1434.38
2022-09-23T10:44:10.395Z,1372.50
2022-09-23T10:45:10.313Z,1293.75
2022-09-23T10:46:10.411Z,1293.75
2022-09-23T10:47:10.305Z,1338.75
2022-09-23T10:48:10.285Z,1316.25
2022-09-23T10:49:10.333Z,1260.00
2022-09-23T10:50:10.271Z,1231.88
2022-09-23T10:51:10.273Z,1209.38
2022-09-23T10:52:10.251Z,1141.88
2022-09-23T10:53:10.238Z,1096.88
2022-09-23T10:54:10.307Z,1051.88
2022-09-23T10:55:10.263Z,1046.25
2022-09-23T10:56:10.218Z,990.00
2022-09-23T10:57:10.196Z,933.75
2022-09-23T10:58:10.180Z,888.75
2022-09-23T10:59:10.171Z,883.12
2022-09-23T11:00:10.157Z,855.00
2022-09-23T11:01:10.341Z,832.50
2022-09-23T11:02:10.135Z,838.12
2022-09-23T11:03:10.123Z,826.88
2022-09-23T11:04:10.489Z,843.75
2022-09-23T11:05:10.295Z,855.00
2022-09-23T11:06:10.088Z,849.38
2022-09-23T11:07:10.281Z,832.50
2022-09-23T11:08:10.086Z,821.25
2022-09-23T11:09:10.067Z,826.88
2022-09-23T11:10:23.257Z,826.88
2022-09-23T11:11:11.033Z,832.50
2022-09-23T11:12:10.028Z,838.12
2022-09-23T11:13:10.032Z,826.88
2022-09-23T11:14:10.107Z,826.88
2022-09-23T11:15:10.000Z,832.50
2022-09-23T11:16:10.027Z,821.25
2022-09-23T11:17:10.102Z,793.12
2022-09-23T11:18:09.972Z,781.88
2022-09-23T11:19:10.034Z,759.38
2022-09-23T11:20:09.942Z,736.88
2022-09-23T11:21:09.936Z,725.62
2022-09-23T11:22:09.920Z,708.75
2022-09-23T11:23:09.936Z,669.38
2022-09-23T11:24:09.938Z,691.88
2022-09-23T11:25:09.904Z,703.12
2022-09-23T11:26:09.878Z,720.00
2022-09-23T11:27:09.863Z,776.25
2022-09-23T11:28:09.903Z,877.50
2022-09-23T11:29:10.169Z,1018.12
2022-09-23T11:30:09.846Z,1164.38
2022-09-23T11:31:09.986Z,1186.88
2022-09-23T11:32:09.862Z,1237.50
2022-09-23T11:33:09.799Z,1316.25
2022-09-23T11:34:09.808Z,1305.00
2022-09-23T11:35:09.781Z,1417.50
2022-09-23T11:36:09.767Z,1366.88
2022-09-23T11:37:09.861Z,1310.62
2022-09-23T11:38:09.746Z,1231.88
2022-09-23T11:39:09.762Z,1158.75
2022-09-23T11:40:09.838Z,1113.75
2022-09-23T11:41:09.712Z,1085.62
2022-09-23T11:42:09.701Z,1192.50
2022-09-23T11:43:09.775Z,1119.38
2022-09-23T11:44:09.716Z,1102.50
2022-09-23T11:45:09.667Z,1051.88
2022-09-23T11:46:09.874Z,1181.25
2022-09-23T11:47:09.663Z,1203.75
2022-09-23T11:48:09.635Z,1203.75
2022-09-23T11:49:09.692Z,1192.50
2022-09-23T11:50:09.618Z,1153.12
2022-09-23T11:51:09.603Z,1040.62
2022-09-23T11:52:09.591Z,1018.12
2022-09-23T11:53:09.591Z,1012.50
2022-09-23T11:54:09.582Z,1040.62
2022-09-23T11:55:19.901Z,1085.62
2022-09-23T11:56:10.558Z,1260.00
2022-09-23T11:57:09.550Z,1321.88
2022-09-23T11:58:20.029Z,1288.12
2022-09-23T11:59:10.776Z,1220.62
2022-09-23T12:00:09.507Z,1468.12
2022-09-23T12:01:09.499Z,1586.25
2022-09-23T12:02:19.623Z,1597.50
2022-09-23T12:03:10.679Z,1614.38
2022-09-23T12:04:18.767Z,1698.75
2022-09-23T12:05:10.620Z,1625.62
2022-09-23T12:06:09.438Z,1546.88
2022-09-23T12:07:09.429Z,1524.38
2022-09-23T12:08:09.439Z,1518.75
2022-09-23T12:09:09.420Z,1513.12
2022-09-23T12:10:09.396Z,1636.88
2022-09-23T12:11:09.417Z,1501.88
2022-09-23T12:12:09.375Z,1575.00
2022-09-23T12:13:09.365Z,1541.25
2022-09-23T12:14:09.611Z,1625.62
2022-09-23T12:15:09.343Z,1659.38
2022-09-23T12:16:09.332Z,1625.62
2022-09-23T12:17:09.320Z,1563.75
2022-09-23T12:18:09.312Z,1603.12
2022-09-23T12:19:09.299Z,1580.62
2022-09-23T12:20:09.379Z,1546.88
2022-09-23T12:21:15.042Z,1530.00
2022-09-23T12:22:10.477Z,1428.75
2022-09-23T12:23:09.255Z,1417.50
2022-09-23T12:24:09.369Z,1344.38
2022-09-23T12:25:09.233Z,1434.38
2022-09-23T12:26:09.253Z,1597.50
2022-09-23T12:27:09.245Z,1693.12
2022-09-23T12:28:09.206Z,1749.38
2022-09-23T12:29:09.191Z,1676.25
2022-09-23T12:30:09.182Z,1597.50
2022-09-23T12:31:09.229Z,1620.00
2022-09-23T12:32:09.233Z,1648.12
2022-09-23T12:33:09.166Z,1563.75
2022-09-23T12:34:09.134Z,1513.12
2022-09-23T12:35:09.124Z,1614.38
2022-09-23T12:36:09.111Z,1687.50
2022-09-23T12:37:09.104Z,1575.00
2022-09-23T12:38:09.097Z,1591.88
2022-09-23T12:39:09.094Z,1659.38